»·PEaware :: WAT462 KSNA-KPHX

WAT462 :: KSNA-KPHX

FLIGHT INFORMATION

Flight Status: Arrived
Operator:
Walker Air Transport
More flights by this operator :: More flights under this callsign
Pilot: Andrew C. (32327)
Aircraft: Unknown
(E35L)
More flights by this aircraft type
Origin: KSNA John Wayne-Orange Co
United States
Destination: KPHX Phoenix Sky Harbor Intl
United States
More flights between these airports :: More routes between these airports
Route: PIGGN2 CNERY BLH HYDRR1
File this flight plan on PilotEdge
Remarks: RMK / SIMBRIEF
Altitude:
(Current/Filed)
39,000ft
Speed:
(Current/Filed)
426kts
Departed: 21-Feb-21 12:01 PM
Arrived: 21-Feb-21 12:52 PM
Distance/Time
Traveled:
293nm/0:51
Distance/Time
To Go:
Arrived

Flight Plot

Page will automatically refresh every two minutes.

Flight plan parsing failed; only flown route is shown


Map Options




Map Legend


Flown Route
Filed Route
Departure Airport
Arrival Airport
Navaid (VOR, NDB)
Fix

Horizontal Profiles

Position Reports

Time Latitude Longitude Heading Altitude Ground
Speed
21-Feb-21 11:44 33.673851 -117.872287 118 63ft 0kts
21-Feb-21 11:45 33.673851 -117.872287 118 63ft 0kts
21-Feb-21 11:46 33.673851 -117.872287 118 63ft 0kts
21-Feb-21 11:47 33.673851 -117.872287 118 63ft 0kts
21-Feb-21 11:48 33.673851 -117.872287 118 63ft 0kts
21-Feb-21 11:49 33.673851 -117.872287 118 63ft 0kts
21-Feb-21 11:50 33.673851 -117.872287 118 63ft 0kts
21-Feb-21 11:51 33.673851 -117.872287 118 63ft 0kts
21-Feb-21 11:52 33.673851 -117.872287 118 63ft 0kts
21-Feb-21 11:53 33.673851 -117.872287 118 63ft 0kts
21-Feb-21 11:54 33.673851 -117.872287 118 63ft 0kts
21-Feb-21 11:55 33.673851 -117.872287 118 63ft 0kts
21-Feb-21 11:56 33.673851 -117.872287 118 63ft 0kts
21-Feb-21 11:57 33.673775 -117.872125 123 63ft 2kts
21-Feb-21 11:58 33.669195 -117.874450 209 63ft 21kts
21-Feb-21 11:59 33.668264 -117.874530 128 63ft 8kts
21-Feb-21 12:00 33.690653 -117.860087 27 947ft 183kts
21-Feb-21 12:01 33.734859 -117.824820 69 3226ft 215kts
21-Feb-21 12:02 33.748655 -117.757049 118 5449ft 217kts
21-Feb-21 12:03 33.699952 -117.709559 130 8300ft 241kts
21-Feb-21 12:04 33.648816 -117.637896 116 11221ft 325kts
21-Feb-21 12:05 33.603134 -117.530206 115 13004ft 381kts
21-Feb-21 12:06 33.561063 -117.412199 108 16258ft 404kts
21-Feb-21 12:07 33.520915 -117.284437 108 19869ft 415kts
21-Feb-21 12:08 33.503274 -117.150515 88 23483ft 423kts
21-Feb-21 12:09 33.500283 -117.007787 87 27596ft 434kts
21-Feb-21 12:10 33.497704 -116.864631 87 31757ft 426kts
21-Feb-21 12:11 33.496160 -116.729679 88 35765ft 396kts
21-Feb-21 12:12 33.494533 -116.598618 88 38038ft 396kts
21-Feb-21 12:13 33.492753 -116.465834 89 39412ft 410kts
21-Feb-21 12:14 33.490696 -116.322913 89 39413ft 448kts
21-Feb-21 12:15 33.488285 -116.168070 89 39412ft 485kts
21-Feb-21 12:16 33.494707 -116.006985 69 39425ft 473kts
21-Feb-21 12:17 33.537400 -115.858851 67 39429ft 480kts
21-Feb-21 12:18 33.582504 -115.703915 67 39432ft 496kts
21-Feb-21 12:19 33.616385 -115.544663 89 39465ft 503kts
21-Feb-21 12:20 33.612801 -115.376719 90 39444ft 506kts
21-Feb-21 12:21 33.608513 -115.207807 91 39436ft 508kts
21-Feb-21 12:22 33.603973 -115.038209 91 39417ft 511kts
21-Feb-21 12:23 33.599177 -114.867923 91 38005ft 501kts
21-Feb-21 12:24 33.585849 -114.709080 102 35356ft 466kts
21-Feb-21 12:25 33.557153 -114.561074 101 33002ft 448kts
21-Feb-21 12:26 33.527222 -114.408219 100 31039ft 466kts
21-Feb-21 12:27 33.498490 -114.262100 99 28323ft 450kts
21-Feb-21 12:28 33.470325 -114.120103 99 25812ft 423kts
21-Feb-21 12:29 33.443467 -113.985754 98 25357ft 414kts
21-Feb-21 12:30 33.416508 -113.851421 98 25358ft 418kts
21-Feb-21 12:31 33.389185 -113.715946 99 25358ft 421kts
21-Feb-21 12:32 33.361479 -113.579437 99 25359ft 425kts
21-Feb-21 12:34 33.335590 -113.451016 96 22521ft 379kts
21-Feb-21 12:35 33.314263 -113.327437 96 19403ft 382kts
21-Feb-21 12:36 33.294184 -113.207857 94 17052ft 355kts
21-Feb-21 12:37 33.278213 -113.097117 93 16046ft 313kts
21-Feb-21 12:38 33.276128 -112.999541 81 15146ft 310kts
21-Feb-21 12:39 33.278703 -112.895873 81 14897ft 318kts
21-Feb-21 12:40 33.291387 -112.793661 60 14715ft 300kts
21-Feb-21 12:41 33.324150 -112.704741 58 13648ft 273kts
21-Feb-21 12:42 33.355224 -112.623870 61 9876ft 264kts
21-Feb-21 12:43 33.382958 -112.550811 63 8333ft 228kts
21-Feb-21 12:44 33.408271 -112.482782 64 7673ft 226kts
21-Feb-21 12:45 33.428102 -112.413393 86 6877ft 226kts
21-Feb-21 12:46 33.428674 -112.339065 87 6042ft 220kts
21-Feb-21 12:47 33.428698 -112.265582 87 5077ft 219kts
21-Feb-21 12:48 33.428780 -112.194095 87 3875ft 196kts
21-Feb-21 12:49 33.428830 -112.133980 87 2887ft 163kts
21-Feb-21 12:50 33.428860 -112.084639 88 2096ft 135kts
21-Feb-21 12:51 33.428956 -112.044270 88 1515ft 122kts
21-Feb-21 12:52 33.428753 -112.011923 101 1123ft 24kts
21-Feb-21 12:53 33.427759 -112.014785 269 1121ft 29kts
21-Feb-21 12:54 33.426489 -112.020877 121 1118ft 18kts
21-Feb-21 12:55 33.425811 -112.020190 266 1118ft 0kts

Navigation Log

Ident Type
Flight plan parsing failed, navigation log unavailable